Aeroporto :
LOGIN :

Iscrizione | Disclaimer

   EN    FR    IT 

 










Sommario :    VFR   VFR Marginale   IFR   IFR Intensivo   IFR Molto Intensivo
Visibilità : 
Base nubi : 
>= 8 km
>= 3000ft
5 / 8 km
1000 / 3000 ft
1500m / 5 km
500 / 1000 ft
800 / 1500m
200 / 500 ft
< 800m
< 200 ft
Simboli :   Temporali  Nebbia  Neve Forte  Precipitazioni Forti  Vento > 20 kt
SIGMETs :   Varie  Temporali  Ghiacco  Turbolenza  Onda orograficha  Ceneri Vulcaniche






- Altitudine del aeroporto : 1302 ft
- Codice IATA : GNB


LFLS - Grenoble / St. Geoirs

ULTIMO METAR :
  • 231730Z AUTO VRB02KT 9999 FEW078/// OVC130/// ///CB 16/10 Q1017 TEMPO TSRA BECMG NSC

METARs OBSOLETI :
  • 231700Z AUTO VRB02KT 9999 //////CB 18/10 Q1017 TEMPO TSRA
  • 231630Z AUTO 26004KT 240V300 9999 FEW078 SCT088 16/10 Q1017 TEMPO TSRA SCT040CB
  • 231600Z AUTO 29006KT 9999 ///TCU 16/11 Q1017 TEMPO TSRA SCT040CB
  • 231530Z AUTO 30011KT 9999 ///CB 16/12 Q1018 TEMPO TSRA BECMG 36005KT
  • 231500Z AUTO 28006KT 9999 //////CB 15/11 Q1018 TEMPO TSRA
  • 231430Z AUTO VRB02KT 9999 ///CB 16/10 Q1017 TEMPO TSRA
  • 231400Z AUTO VRB02KT 9999 FEW032/// SCT070/// BKN110/// //////CB 16/11 Q1017 TEMPO TSRA
  • 231330Z AUTO 26003KT 210V300 9999 SCT020/// BKN068/// OVC078/// ///TCU 16/10 Q1018 TEMPO TSRA SCT040CB
  • 231300Z AUTO VRB02KT 9999 -RA FEW050/// BKN072/// OVC094/// ///CB 15/09 Q1018 TEMPO TSRA

TAF TAF LFLS
Valido dal 23 a 15 ore il 24 a 15 ore UTC


231400Z 2315/2415 36005KT 9999 FEW040TCU
PROB40
TEMPO 2315/2319 TSRA SCT040CB
BECMG 2319/2321 CAVOK
BECMG 2408/2410 FEW050TCU
TEMPO 2410/2415 SHRA SCT040TCU
ATIS : +33 4 76 65 55 89



MetMap, La meteo Aeronautica in un colpo d'occhio ! - Copyright ORBIFLY Dicembre 2007 - Disclaimer

ORBIFLY MET'MAP TEAM :

Programmazione e sviluppo : Alexandra Zaïnal
Concezione : Baudouin d'Aumeries
Supporto tecnico e logistico : Manuel Goepfert
Aiuto : Marc-Olivier Méhu
Aiuto per la traduzione : Arnaldo La Scala




FONTI E CREDITI :

   NOAA